Time;durP1;ratioP1;P1;durP2;ratioP2;P2;SDS_P1;SDS_P2;PMS_P1;PMS_P2;Temp;Humidity;BMP_temperature;BMP_pressure;BME280_temperature;BME280_humidity;BME280_pressure;Samples;Min_cycle;Max_cycle;Signal;HPM_P1;HPM_P2
2021/04/27 00:00:21;;;;;;;95.63;85.32;;;19.50;99.90;;;;;;4894083;29;20044;-68
2021/04/27 00:02:49;;;;;;;96.00;85.80;;;19.50;99.90;;;;;;4914460;29;20048;-68
2021/04/27 00:05:18;;;;;;;88.32;76.90;;;19.40;99.90;;;;;;4916265;29;20502;-68
2021/04/27 00:07:46;;;;;;;84.22;75.10;;;19.30;99.90;;;;;;4913956;29;20041;-68
2021/04/27 00:10:15;;;;;;;88.40;79.03;;;19.50;99.90;;;;;;4915215;29;20040;-68
2021/04/27 00:12:43;;;;;;;73.75;65.63;;;19.80;99.90;;;;;;4914082;29;20040;-68
2021/04/27 00:15:15;;;;;;;69.10;60.90;;;20.10;99.90;;;;;;4898439;29;20046;-68
2021/04/27 00:17:42;;;;;;;74.88;66.35;;;20.40;99.90;;;;;;4914000;29;20048;-68
2021/04/27 00:20:11;;;;;;;66.50;58.15;;;20.50;99.90;;;;;;4909693;29;20438;-68
2021/04/27 00:22:38;;;;;;;68.38;60.53;;;20.70;99.90;;;;;;4921991;29;20509;-68
2021/04/27 00:25:07;;;;;;;69.10;59.30;;;20.70;99.90;;;;;;4916122;29;20084;-68
2021/04/27 00:27:36;;;;;;;58.22;51.85;;;20.80;99.90;;;;;;4918120;29;20036;-68
2021/04/27 00:30:07;;;;;;;58.42;51.33;;;20.60;99.90;;;;;;4923225;29;20092;-68
2021/04/27 00:32:35;;;;;;;60.25;49.13;;;20.60;99.90;;;;;;4911793;29;20123;-68
2021/04/27 00:35:03;;;;;;;50.15;43.50;;;21.10;99.90;;;;;;4915103;29;20036;-68
2021/04/27 00:37:30;;;;;;;55.03;49.25;;;20.90;99.90;;;;;;4915816;29;20169;-67
2021/04/27 00:39:58;;;;;;;56.00;49.85;;;20.50;99.90;;;;;;4929596;29;20028;-68
2021/04/27 00:42:33;;;;;;;48.45;42.55;;;20.80;99.90;;;;;;4917247;29;20059;-67
2021/04/27 00:45:01;;;;;;;43.40;37.60;;;20.90;99.90;;;;;;4928773;29;20040;-66
2021/04/27 00:47:28;;;;;;;35.45;31.30;;;20.70;99.90;;;;;;4918113;29;20397;-67
2021/04/27 00:49:56;;;;;;;33.47;29.85;;;20.40;99.90;;;;;;4929126;29;20040;-67
2021/04/27 00:52:25;;;;;;;36.42;32.05;;;20.40;99.90;;;;;;4914424;29;20075;-67
2021/04/27 00:54:53;;;;;;;35.45;31.38;;;20.70;99.90;;;;;;4914487;29;20047;-67
2021/04/27 00:57:23;;;;;;;41.75;33.58;;;20.80;99.90;;;;;;4916966;29;20083;-67
2021/04/27 00:59:52;;;;;;;34.90;31.13;;;20.80;99.90;;;;;;4919104;29;20409;-67
2021/04/27 01:02:19;;;;;;;38.63;34.38;;;21.10;99.90;;;;;;4917218;29;20036;-66
2021/04/27 01:04:47;;;;;;;41.75;33.63;;;21.30;99.90;;;;;;4919266;29;20038;-67
2021/04/27 01:07:19;;;;;;;28.77;25.70;;;21.30;99.90;;;;;;4910618;29;20044;-66
2021/04/27 01:09:53;;;;;;;36.20;30.58;;;21.40;99.90;;;;;;4929296;29;20167;-66
2021/04/27 01:12:44;;;;;;;38.67;32.35;;;20.90;99.90;;;;;;4934619;29;20119;-66
2021/04/27 01:15:20;;;;;;;33.08;28.00;;;20.80;99.90;;;;;;4917938;29;20056;-67
2021/04/27 01:17:50;;;;;;;22.88;20.48;;;20.70;99.90;;;;;;4907334;29;20036;-66
2021/04/27 01:20:27;;;;;;;16.17;14.30;;;21.20;99.90;;;;;;4909620;29;20084;-67
2021/04/27 01:23:18;;;;;;;17.08;15.23;;;21.60;99.90;;;;;;4926798;29;20079;-66
2021/04/27 01:25:55;;;;;;;19.52;17.45;;;21.70;99.90;;;;;;4917649;29;20087;-67
2021/04/27 01:28:26;;;;;;;18.35;16.02;;;21.70;99.90;;;;;;4905482;29;20041;-67
2021/04/27 01:30:55;;;;;;;18.15;14.73;;;21.90;99.90;;;;;;4929958;29;20040;-67
2021/04/27 01:33:27;;;;;;;16.75;15.07;;;22.10;99.90;;;;;;4922195;29;20036;-67
2021/04/27 01:35:56;;;;;;;19.85;17.73;;;22.30;99.90;;;;;;4899770;29;20051;-67
2021/04/27 01:38:24;;;;;;;17.58;15.88;;;22.30;99.90;;;;;;4914222;29;20044;-66
2021/04/27 01:40:52;;;;;;;19.13;17.05;;;22.10;99.90;;;;;;4918098;29;20039;-66
2021/04/27 01:43:21;;;;;;;19.77;17.02;;;22.00;99.90;;;;;;4916655;29;20054;-66
2021/04/27 01:46:03;;;;;;;16.70;14.20;;;22.30;99.90;;;;;;4922575;29;20492;-66
2021/04/27 01:48:31;;;;;;;12.80;11.35;;;22.30;99.90;;;;;;4912805;29;20036;-66
2021/04/27 01:50:59;;;;;;;11.68;10.30;;;22.10;99.90;;;;;;4923282;29;20048;-67
2021/04/27 01:53:26;;;;;;;15.77;10.85;;;21.60;99.90;;;;;;4913857;29;20533;-67
2021/04/27 01:55:54;;;;;;;10.65;9.55;;;21.60;99.90;;;;;;4913582;29;20052;-67
2021/04/27 01:58:21;;;;;;;11.82;9.95;;;21.70;99.90;;;;;;4915863;29;20572;-67
2021/04/27 02:00:49;;;;;;;12.18;10.23;;;21.70;99.90;;;;;;4917893;29;20038;-66
2021/04/27 02:03:16;;;;;;;10.98;9.73;;;22.10;99.90;;;;;;4912968;29;20068;-66
2021/04/27 02:05:43;;;;;;;11.77;10.15;;;22.10;99.90;;;;;;4899128;29;20131;-67
2021/04/27 02:08:11;;;;;;;9.60;8.20;;;22.40;99.90;;;;;;4909223;29;20149;-67
2021/04/27 02:10:38;;;;;;;13.07;10.27;;;22.40;99.90;;;;;;4918115;29;20379;-67
2021/04/27 02:13:12;;;;;;;13.35;9.57;;;22.50;99.90;;;;;;4915951;29;20054;-67
2021/04/27 02:15:41;;;;;;;12.95;9.50;;;22.80;99.90;;;;;;4913608;29;20401;-67
2021/04/27 02:18:25;;;;;;;16.20;10.63;;;22.60;99.90;;;;;;4916392;29;20036;-66
2021/04/27 02:20:54;;;;;;;14.57;10.37;;;22.20;99.90;;;;;;4901221;29;20032;-67
2021/04/27 02:23:22;;;;;;;14.00;9.88;;;22.60;99.90;;;;;;4915936;29;20044;-66
2021/04/27 02:25:51;;;;;;;12.50;8.57;;;22.90;99.90;;;;;;4917706;29;20048;-67
2021/04/27 02:28:19;;;;;;;9.48;8.48;;;23.40;99.90;;;;;;4913401;29;20028;-66
2021/04/27 02:30:47;;;;;;;9.02;7.63;;;23.80;99.90;;;;;;4914598;29;20048;-67
2021/04/27 02:33:16;;;;;;;13.07;7.28;;;23.70;99.90;;;;;;4915699;29;20040;-67
2021/04/27 02:35:44;;;;;;;9.60;7.25;;;23.30;99.90;;;;;;4917345;29;20083;-66
2021/04/27 02:38:12;;;;;;;12.68;7.75;;;23.90;99.90;;;;;;4915484;29;20401;-67
2021/04/27 02:40:39;;;;;;;9.57;6.30;;;24.40;99.90;;;;;;4917113;29;20048;-67
2021/04/27 02:43:06;;;;;;;9.95;7.43;;;24.50;99.90;;;;;;4910468;29;20390;-67
2021/04/27 02:45:34;;;;;;;13.73;7.63;;;23.70;99.90;;;;;;4900221;29;20032;-66
2021/04/27 02:48:16;;;;;;;10.65;8.05;;;23.80;99.90;;;;;;4915643;29;20040;-66
2021/04/27 02:50:47;;;;;;;7.88;6.82;;;23.20;99.90;;;;;;4900313;29;20046;-66
2021/04/27 02:53:15;;;;;;;8.48;7.60;;;23.40;99.40;;;;;;4915243;29;20047;-66
2021/04/27 02:55:43;;;;;;;10.05;7.38;;;22.70;99.90;;;;;;4916091;29;20544;-66
2021/04/27 02:58:11;;;;;;;8.85;7.95;;;22.70;99.90;;;;;;4914912;29;20040;-66
2021/04/27 03:00:40;;;;;;;13.48;8.23;;;22.90;99.90;;;;;;4916877;29;20482;-67
2021/04/27 03:03:07;;;;;;;8.30;7.50;;;23.20;99.90;;;;;;4915229;29;20079;-67
2021/04/27 03:05:35;;;;;;;8.07;6.55;;;23.30;99.90;;;;;;4917127;29;20052;-66
2021/04/27 03:08:03;;;;;;;10.15;6.95;;;23.70;99.60;;;;;;4912010;29;20040;-67
2021/04/27 03:10:30;;;;;;;9.52;7.40;;;23.70;98.50;;;;;;4904573;29;20558;-67
2021/04/27 03:12:57;;;;;;;9.07;7.28;;;23.50;98.40;;;;;;4919314;29;20040;-67
2021/04/27 03:15:27;;;;;;;7.53;6.63;;;23.30;98.50;;;;;;4914726;29;20060;-67
2021/04/27 03:17:54;;;;;;;9.60;6.85;;;23.00;99.00;;;;;;4915023;29;20115;-67
2021/04/27 03:20:21;;;;;;;11.40;7.70;;;23.50;98.30;;;;;;4916861;29;20075;-66
2021/04/27 03:22:48;;;;;;;11.07;7.20;;;23.20;99.90;;;;;;4914653;29;20040;-67
2021/04/27 03:25:16;;;;;;;11.88;8.00;;;24.00;98.70;;;;;;4916574;29;20035;-66
2021/04/27 03:27:44;;;;;;;10.98;7.18;;;24.20;98.40;;;;;;4914990;29;20036;-67
2021/04/27 03:30:14;;;;;;;8.25;6.78;;;23.80;99.90;;;;;;4916397;29;20036;-66
2021/04/27 03:32:41;;;;;;;10.10;6.90;;;24.10;99.50;;;;;;4913024;29;20503;-66
2021/04/27 03:35:12;;;;;;;7.47;6.10;;;23.60;99.10;;;;;;4914944;29;20032;-66
2021/04/27 03:37:40;;;;;;;6.97;5.78;;;24.00;98.10;;;;;;4889678;29;20051;-66
2021/04/27 03:40:12;;;;;;;9.80;7.03;;;24.20;99.10;;;;;;4916471;29;20085;-66
2021/04/27 03:42:40;;;;;;;8.48;5.70;;;24.10;97.80;;;;;;4914297;29;20036;-66
2021/04/27 03:45:12;;;;;;;7.97;6.00;;;23.90;96.80;;;;;;4914851;29;20592;-66
2021/04/27 03:47:40;;;;;;;7.57;5.75;;;23.40;97.50;;;;;;4912142;29;20588;-66
2021/04/27 03:50:12;;;;;;;13.23;10.10;;;23.60;98.90;;;;;;4909520;29;20424;-66
2021/04/27 03:52:39;;;;;;;15.07;12.55;;;23.70;99.90;;;;;;4914706;29;20117;-66
2021/04/27 03:55:07;;;;;;;16.80;12.85;;;23.90;99.90;;;;;;4916568;29;20164;-66
2021/04/27 03:57:34;;;;;;;15.88;13.32;;;23.70;99.90;;;;;;4897170;29;20047;-67
2021/04/27 04:00:03;;;;;;;17.80;13.20;;;23.50;99.90;;;;;;4908965;29;20496;-66
2021/04/27 04:02:30;;;;;;;21.67;17.85;;;23.20;99.90;;;;;;4910014;29;20409;-67
2021/04/27 04:04:57;;;;;;;25.15;20.67;;;23.20;99.90;;;;;;4913633;29;20032;-67
2021/04/27 04:07:25;;;;;;;30.17;23.30;;;23.40;99.90;;;;;;4909318;29;20424;-66
2021/04/27 04:09:52;;;;;;;29.17;25.83;;;22.80;99.90;;;;;;4891672;29;20040;-67
2021/04/27 04:12:19;;;;;;;35.38;26.35;;;22.10;99.90;;;;;;4912426;29;20036;-67
2021/04/27 04:14:47;;;;;;;33.03;27.77;;;21.90;99.90;;;;;;4911286;29;20040;-66
2021/04/27 04:17:14;;;;;;;36.15;29.90;;;22.10;99.90;;;;;;4914347;29;20437;-67
2021/04/27 04:19:41;;;;;;;32.55;29.13;;;22.10;99.90;;;;;;4897779;29;20032;-67
2021/04/27 04:22:09;;;;;;;36.35;28.98;;;21.90;99.90;;;;;;4913674;29;20064;-67
2021/04/27 04:24:36;;;;;;;32.40;28.58;;;21.80;99.90;;;;;;4914848;29;20043;-67
2021/04/27 04:27:03;;;;;;;33.42;29.15;;;21.90;99.90;;;;;;4916546;29;20409;-66
2021/04/27 04:29:31;;;;;;;32.08;28.65;;;21.50;99.90;;;;;;4912715;29;20044;-67
2021/04/27 04:31:58;;;;;;;32.08;28.48;;;21.60;99.90;;;;;;4916596;29;20039;-66
2021/04/27 04:34:25;;;;;;;34.33;27.52;;;21.30;99.90;;;;;;4909532;29;20048;-66
2021/04/27 04:36:52;;;;;;;34.00;28.17;;;21.10;99.90;;;;;;4914047;29;20119;-66
2021/04/27 04:39:20;;;;;;;37.00;27.58;;;21.00;99.90;;;;;;4916901;29;20039;-67
2021/04/27 04:41:47;;;;;;;31.00;25.85;;;20.90;99.90;;;;;;4912605;29;20820;-67
2021/04/27 04:44:14;;;;;;;34.20;26.75;;;21.00;99.90;;;;;;4913841;29;20032;-67
2021/04/27 04:46:42;;;;;;;32.28;26.98;;;21.00;99.90;;;;;;4916380;29;20035;-67
2021/04/27 04:49:10;;;;;;;29.77;26.08;;;21.00;99.90;;;;;;4910466;29;20735;-67
2021/04/27 04:51:37;;;;;;;32.20;24.92;;;20.80;99.90;;;;;;4910001;29;20499;-67
2021/04/27 04:54:05;;;;;;;31.55;25.10;;;20.90;99.90;;;;;;4913356;29;20036;-67
2021/04/27 04:56:32;;;;;;;30.10;24.20;;;21.00;99.90;;;;;;4918551;29;20039;-67
2021/04/27 04:58:59;;;;;;;25.60;22.83;;;21.00;99.90;;;;;;4911915;29;20052;-67
2021/04/27 05:01:27;;;;;;;30.25;23.02;;;20.80;99.90;;;;;;4914491;29;20043;-67
2021/04/27 05:03:54;;;;;;;25.23;21.08;;;20.70;99.90;;;;;;4915288;29;20039;-67
2021/04/27 05:06:22;;;;;;;23.25;20.52;;;20.70;99.90;;;;;;4925767;29;20035;-66
2021/04/27 05:08:52;;;;;;;22.90;19.20;;;20.60;99.90;;;;;;4919792;29;20036;-67
2021/04/27 05:11:19;;;;;;;24.10;19.05;;;20.60;99.90;;;;;;4914604;29;20771;-67
2021/04/27 05:13:46;;;;;;;21.88;17.40;;;20.40;99.90;;;;;;4913024;29;20035;-65
2021/04/27 05:16:14;;;;;;;25.83;18.00;;;20.50;99.90;;;;;;4915199;29;20120;-65
2021/04/27 05:18:41;;;;;;;19.33;16.95;;;20.40;99.90;;;;;;4912387;29;20044;-65
2021/04/27 05:21:09;;;;;;;19.92;17.80;;;20.40;99.90;;;;;;4912453;29;20512;-65
2021/04/27 05:23:36;;;;;;;20.63;17.15;;;20.40;99.90;;;;;;4904273;29;20115;-66
2021/04/27 05:26:04;;;;;;;21.80;16.33;;;20.30;99.90;;;;;;4913353;29;20036;-66
2021/04/27 05:28:31;;;;;;;22.58;16.88;;;20.30;99.90;;;;;;4918193;29;20023;-67
2021/04/27 05:30:59;;;;;;;20.52;16.65;;;20.30;99.90;;;;;;4918670;29;20633;-66
2021/04/27 05:33:26;;;;;;;23.13;16.63;;;20.20;99.90;;;;;;4915326;29;20486;-66
2021/04/27 05:35:54;;;;;;;18.45;15.05;;;20.10;99.90;;;;;;4915704;29;20040;-66
2021/04/27 05:38:21;;;;;;;21.30;15.13;;;20.10;99.90;;;;;;4910847;29;20044;-66
2021/04/27 05:40:48;;;;;;;15.77;13.25;;;20.10;99.90;;;;;;4913296;29;20032;-66
2021/04/27 05:43:16;;;;;;;18.73;13.63;;;20.00;99.90;;;;;;4914407;29;20040;-66
2021/04/27 05:45:44;;;;;;;15.75;12.23;;;20.00;99.90;;;;;;4893264;29;20040;-66
2021/04/27 05:48:12;;;;;;;15.75;11.68;;;20.00;99.90;;;;;;4913740;29;20446;-66
2021/04/27 05:50:40;;;;;;;15.05;11.18;;;20.00;99.90;;;;;;4901539;29;20044;-66
2021/04/27 05:53:07;;;;;;;11.98;10.30;;;20.00;99.90;;;;;;4913268;29;20131;-67
2021/04/27 05:55:35;;;;;;;14.73;10.35;;;19.90;99.90;;;;;;4911168;29;20036;-66
2021/04/27 05:58:03;;;;;;;14.10;10.98;;;19.90;99.90;;;;;;4912833;29;20044;-66
2021/04/27 06:00:30;;;;;;;13.68;10.25;;;19.80;99.90;;;;;;4901272;29;20549;-66
2021/04/27 06:02:57;;;;;;;13.65;10.23;;;19.90;99.90;;;;;;4915343;29;20494;-66
2021/04/27 06:05:24;;;;;;;15.00;8.98;;;19.80;99.90;;;;;;4915835;29;20099;-66
2021/04/27 06:07:52;;;;;;;15.18;9.32;;;19.80;99.90;;;;;;4923548;29;20500;-66
2021/04/27 06:10:19;;;;;;;13.05;9.38;;;19.70;99.90;;;;;;4929251;29;20036;-66
2021/04/27 06:12:46;;;;;;;12.48;9.75;;;19.80;99.90;;;;;;4911655;29;20501;-66
2021/04/27 06:15:17;;;;;;;12.73;9.73;;;19.70;99.90;;;;;;4916276;29;20131;-66
2021/04/27 06:17:45;;;;;;;12.68;9.85;;;19.60;99.90;;;;;;4914229;29;20043;-66
2021/04/27 06:20:14;;;;;;;11.05;9.30;;;19.60;99.90;;;;;;4936465;29;20497;-66
2021/04/27 06:22:41;;;;;;;13.55;10.15;;;19.60;99.90;;;;;;4909697;29;20428;-66
2021/04/27 06:25:10;;;;;;;14.00;10.10;;;19.50;99.90;;;;;;4923005;29;20552;-66
2021/04/27 06:27:38;;;;;;;17.70;10.73;;;19.40;99.90;;;;;;4923298;29;20044;-66
2021/04/27 06:30:07;;;;;;;12.55;10.43;;;19.40;99.90;;;;;;4917407;29;20146;-66
2021/04/27 06:32:35;;;;;;;13.43;9.27;;;19.40;99.90;;;;;;4914236;29;20048;-66
2021/04/27 06:35:04;;;;;;;17.55;10.30;;;19.30;99.90;;;;;;4933628;29;20095;-66
2021/04/27 06:37:31;;;;;;;13.73;9.35;;;19.30;99.90;;;;;;4915317;29;20054;-66
2021/04/27 06:39:58;;;;;;;12.57;10.15;;;19.30;99.90;;;;;;4918942;29;20127;-67
2021/04/27 06:42:26;;;;;;;14.68;10.32;;;19.20;99.90;;;;;;4908194;29;20092;-66
2021/04/27 06:44:53;;;;;;;17.35;9.50;;;19.10;99.90;;;;;;4917293;29;20079;-66
2021/04/27 06:47:21;;;;;;;12.68;8.20;;;19.10;99.90;;;;;;4913658;29;20040;-66
2021/04/27 06:49:49;;;;;;;10.55;6.85;;;19.00;99.90;;;;;;4914580;29;20042;-67
2021/04/27 06:52:17;;;;;;;12.88;7.30;;;19.00;99.90;;;;;;4912444;29;20043;-66
2021/04/27 06:54:44;;;;;;;8.50;6.65;;;19.00;99.90;;;;;;4917474;29;20039;-66
2021/04/27 06:57:11;;;;;;;9.75;6.75;;;19.00;99.90;;;;;;4914014;29;20506;-67
2021/04/27 06:59:39;;;;;;;10.45;6.70;;;18.90;99.90;;;;;;4918682;29;20070;-68
2021/04/27 07:02:06;;;;;;;10.23;5.13;;;18.90;99.90;;;;;;4919699;29;20050;-66
2021/04/27 07:04:35;;;;;;;11.10;5.47;;;18.70;99.90;;;;;;4918878;29;20048;-66
2021/04/27 07:07:06;;;;;;;10.18;5.60;;;18.70;99.90;;;;;;4896752;29;20417;-66
2021/04/27 07:09:33;;;;;;;8.32;5.28;;;18.60;99.90;;;;;;4911188;29;20041;-66
2021/04/27 07:12:02;;;;;;;7.88;5.53;;;18.60;99.90;;;;;;4897464;29;20078;-66
2021/04/27 07:14:29;;;;;;;8.45;5.85;;;18.60;99.90;;;;;;4914591;29;20048;-66
2021/04/27 07:16:56;;;;;;;8.98;6.38;;;18.60;99.90;;;;;;4914505;29;20043;-66
2021/04/27 07:19:24;;;;;;;9.50;6.10;;;18.60;99.90;;;;;;4911940;29;20044;-67
2021/04/27 07:21:52;;;;;;;8.05;5.32;;;18.60;99.90;;;;;;4914465;29;20075;-66
2021/04/27 07:24:20;;;;;;;7.32;5.28;;;18.60;99.90;;;;;;4897646;29;20577;-66
2021/04/27 07:26:49;;;;;;;9.10;5.25;;;18.50;99.90;;;;;;4897348;29;20116;-67
2021/04/27 07:29:17;;;;;;;6.63;5.30;;;18.40;99.90;;;;;;4916653;29;20469;-67
2021/04/27 07:31:44;;;;;;;7.68;4.90;;;18.40;99.90;;;;;;4915287;29;20048;-66
2021/04/27 07:34:12;;;;;;;9.68;5.57;;;18.40;99.90;;;;;;4914253;29;20044;-67
2021/04/27 07:36:40;;;;;;;9.05;4.72;;;18.40;99.90;;;;;;4916330;29;20036;-66
2021/04/27 07:39:09;;;;;;;9.23;6.10;;;18.30;99.90;;;;;;4911998;29;20033;-66
2021/04/27 07:41:37;;;;;;;9.05;5.70;;;18.30;99.90;;;;;;4903904;29;20036;-66
2021/04/27 07:44:05;;;;;;;8.63;5.75;;;18.30;99.90;;;;;;4910943;29;20421;-66
2021/04/27 07:46:33;;;;;;;12.27;6.10;;;18.30;99.90;;;;;;4913581;29;20430;-66
2021/04/27 07:49:01;;;;;;;13.15;5.90;;;18.30;99.90;;;;;;4897583;29;20501;-66
2021/04/27 07:51:29;;;;;;;7.85;5.32;;;18.20;99.90;;;;;;4916163;29;20037;-66
2021/04/27 07:53:57;;;;;;;11.95;6.68;;;18.20;99.90;;;;;;4913880;29;20050;-67
2021/04/27 07:56:26;;;;;;;9.20;6.03;;;18.20;99.90;;;;;;4916512;29;20044;-66
2021/04/27 07:58:53;;;;;;;12.70;7.15;;;18.20;99.90;;;;;;4913321;29;20071;-66
2021/04/27 08:01:20;;;;;;;11.43;7.38;;;18.20;99.90;;;;;;4918077;29;20083;-67
2021/04/27 08:03:47;;;;;;;11.32;6.75;;;18.20;99.90;;;;;;4916345;29;20043;-67
2021/04/27 08:06:15;;;;;;;11.98;7.60;;;18.10;99.90;;;;;;4915810;29;20120;-67
2021/04/27 08:08:42;;;;;;;9.38;6.55;;;18.00;99.90;;;;;;4914169;29;20051;-67
2021/04/27 08:11:09;;;;;;;11.68;6.85;;;18.00;99.90;;;;;;4913356;29;20039;-67
2021/04/27 08:13:37;;;;;;;10.90;7.00;;;17.90;99.90;;;;;;4913846;29;20040;-67
2021/04/27 08:16:05;;;;;;;11.57;7.60;;;17.90;99.90;;;;;;4898297;29;20096;-67
2021/04/27 08:18:36;;;;;;;13.55;7.32;;;17.90;99.90;;;;;;4903818;29;20418;-67
2021/04/27 08:21:07;;;;;;;13.18;8.10;;;17.90;99.90;;;;;;4898269;29;20045;-67
2021/04/27 08:23:36;;;;;;;17.27;9.13;;;17.80;99.90;;;;;;4911894;29;20060;-66
2021/04/27 08:26:06;;;;;;;11.88;6.97;;;17.90;99.90;;;;;;4911678;29;20036;-66
2021/04/27 08:28:34;;;;;;;14.25;6.30;;;17.80;99.90;;;;;;4896288;29;20130;-65
2021/04/27 08:31:01;;;;;;;21.20;9.85;;;17.80;99.90;;;;;;4913994;29;20099;-66
2021/04/27 08:33:29;;;;;;;14.35;9.82;;;17.80;99.90;;;;;;4904973;29;20040;-66
2021/04/27 08:35:57;;;;;;;20.98;11.25;;;17.70;99.90;;;;;;4913506;29;20044;-67
2021/04/27 08:38:25;;;;;;;19.23;10.48;;;17.80;99.90;;;;;;4909895;29;20153;-67
2021/04/27 08:40:54;;;;;;;12.07;8.63;;;17.70;99.90;;;;;;4913452;29;20107;-67
2021/04/27 08:43:21;;;;;;;11.25;8.80;;;17.70;99.90;;;;;;4912461;29;20466;-67
2021/04/27 08:45:49;;;;;;;15.48;9.02;;;17.70;99.90;;;;;;4898637;29;20072;-66
2021/04/27 08:48:16;;;;;;;15.80;10.88;;;17.70;99.90;;;;;;4912231;29;20059;-66
2021/04/27 08:50:45;;;;;;;16.63;11.00;;;17.70;99.90;;;;;;4909565;29;20033;-67
2021/04/27 08:53:12;;;;;;;15.65;10.65;;;17.70;99.90;;;;;;4908877;29;20496;-67
2021/04/27 08:55:40;;;;;;;15.68;10.48;;;17.70;99.90;;;;;;4917952;29;20044;-66
2021/04/27 08:58:09;;;;;;;14.50;10.68;;;17.70;99.90;;;;;;4900669;29;20123;-67
2021/04/27 09:00:37;;;;;;;14.93;9.48;;;17.70;99.90;;;;;;4917242;29;20036;-67
2021/04/27 09:03:06;;;;;;;16.23;10.93;;;17.70;99.90;;;;;;4915986;29;20032;-66
2021/04/27 09:05:38;;;;;;;14.70;10.27;;;17.70;99.90;;;;;;4918277;29;20509;-67
2021/04/27 09:08:05;;;;;;;16.80;9.73;;;17.60;99.90;;;;;;4908952;29;20032;-67
2021/04/27 09:10:40;;;;;;;15.23;11.10;;;17.60;99.90;;;;;;4916186;29;20043;-67
2021/04/27 09:13:19;;;;;;;;;;;17.60;99.90;;;;;;4913583;29;20482;-67
2021/04/27 09:15:51;;;;;;;11.85;9.35;;;17.60;99.90;;;;;;4916971;29;20005;-67
2021/04/27 09:18:32;;;;;;;10.75;8.93;;;17.50;99.90;;;;;;4915976;29;20032;-67
2021/04/27 09:21:08;;;;;;;16.92;10.68;;;17.50;99.90;;;;;;4912565;29;20119;-67
2021/04/27 09:23:37;;;;;;;13.50;9.68;;;17.50;99.90;;;;;;4914905;29;20036;-67
2021/04/27 09:26:12;;;;;;;17.20;10.25;;;17.50;99.90;;;;;;4917863;29;20024;-67
2021/04/27 09:28:41;;;;;;;17.52;9.60;;;17.40;99.90;;;;;;4915212;29;20401;-67
2021/04/27 09:31:34;;;;;;;17.27;10.48;;;17.40;99.90;;;;;;4915243;29;20182;-67
2021/04/27 09:34:22;;;;;;;19.17;10.38;;;17.50;99.90;;;;;;4899189;29;20047;-67
2021/04/27 09:37:01;;;;;;;19.80;10.80;;;17.40;99.90;;;;;;4905022;29;20036;-67
2021/04/27 09:39:43;;;;;;;18.73;9.75;;;17.40;99.90;;;;;;4914951;29;20126;-67
2021/04/27 09:42:21;;;;;;;16.95;10.48;;;17.40;99.90;;;;;;4912121;29;20522;-67
2021/04/27 09:44:57;;;;;;;16.00;9.90;;;17.40;99.90;;;;;;4915530;29;20110;-67
2021/04/27 09:47:33;;;;;;;14.57;9.40;;;17.30;99.90;;;;;;4915582;29;20367;-67
2021/04/27 09:50:06;;;;;;;19.90;9.73;;;17.30;99.90;;;;;;4917727;29;20059;-67
2021/04/27 09:52:41;;;;;;;17.42;8.82;;;17.30;99.90;;;;;;4916084;29;20044;-67
2021/04/27 09:55:16;;;;;;;11.05;8.30;;;17.30;99.90;;;;;;4916688;29;20036;-67
2021/04/27 09:57:53;;;;;;;12.80;8.25;;;17.20;99.90;;;;;;4908565;29;20080;-68
2021/04/27 10:00:28;;;;;;;12.55;8.07;;;17.30;99.90;;;;;;4906603;29;20032;-68
2021/04/27 10:03:09;;;;;;;14.35;9.32;;;17.30;99.90;;;;;;4916123;29;20130;-68
2021/04/27 10:05:45;;;;;;;14.32;8.35;;;17.30;99.90;;;;;;4913121;29;20579;-68
2021/04/27 10:08:14;;;;;;;18.50;9.10;;;17.30;99.90;;;;;;4914228;29;20028;-68
2021/04/27 10:10:41;;;;;;;13.70;7.93;;;17.30;99.90;;;;;;4917981;29;20054;-68
2021/04/27 10:13:10;;;;;;;14.95;7.93;;;17.20;99.90;;;;;;4912507;29;20063;-68
2021/04/27 10:15:38;;;;;;;16.85;8.88;;;17.20;99.90;;;;;;4917927;29;20480;-68
2021/04/27 10:18:08;;;;;;;12.15;7.15;;;17.10;99.90;;;;;;4917146;29;20056;-68
2021/04/27 10:20:37;;;;;;;10.40;7.25;;;17.10;99.90;;;;;;4917507;29;20058;-68
2021/04/27 10:23:07;;;;;;;10.68;7.22;;;17.10;99.90;;;;;;4900373;29;20043;-68
2021/04/27 10:25:36;;;;;;;10.75;7.25;;;17.10;99.90;;;;;;4917384;29;20373;-68
2021/04/27 10:28:08;;;;;;;11.23;7.32;;;17.00;99.90;;;;;;4899604;29;20040;-68
2021/04/27 10:30:44;;;;;;;11.85;7.28;;;16.90;99.90;;;;;;4917298;29;20508;-68
2021/04/27 10:33:18;;;;;;;10.63;7.15;;;16.90;99.90;;;;;;4917476;29;20386;-68
2021/04/27 10:36:11;;;;;;;12.00;7.20;;;16.80;99.90;;;;;;4917469;29;20055;-67
2021/04/27 10:38:49;;;;;;;11.95;8.38;;;16.80;99.90;;;;;;4906483;29;20056;-68
2021/04/27 10:41:22;;;;;;;11.90;7.57;;;16.80;99.90;;;;;;4917339;29;20139;-68
2021/04/27 10:44:01;;;;;;;13.10;8.15;;;16.80;99.90;;;;;;4917657;29;20036;-67
2021/04/27 10:46:28;;;;;;;14.27;7.10;;;16.70;99.90;;;;;;4916696;29;20088;-68
2021/04/27 10:49:09;;;;;;;11.80;6.85;;;16.70;99.90;;;;;;4916958;29;20401;-68
2021/04/27 10:51:40;;;;;;;15.35;7.65;;;16.70;99.90;;;;;;4917335;29;20394;-68
2021/04/27 10:54:35;;;;;;;14.13;7.32;;;16.70;99.90;;;;;;4917424;29;20040;-68
2021/04/27 10:57:01;;;;;;;;;;;16.70;99.90;;;;;;4908003;29;20055;-67
2021/04/27 10:59:52;;;;;;;15.73;7.10;;;16.70;99.90;;;;;;4916663;29;19911;-68
2021/04/27 11:02:27;;;;;;;15.15;8.25;;;16.60;99.90;;;;;;4898343;29;20524;-68
2021/04/27 11:04:55;;;;;;;;;;;16.60;99.90;;;;;;4916615;29;20112;-67
2021/04/27 11:07:23;;;;;;;12.68;7.10;;;16.60;99.90;;;;;;4916351;29;20272;-68
2021/04/27 11:10:04;;;;;;;10.93;6.20;;;16.50;99.90;;;;;;4916583;29;20070;-68
2021/04/27 11:12:41;;;;;;;14.23;6.90;;;16.60;99.90;;;;;;4916398;29;20040;-68
2021/04/27 11:15:13;;;;;;;12.93;6.63;;;16.60;99.90;;;;;;4899775;29;20042;-67
2021/04/27 11:17:55;;;;;;;10.95;7.03;;;16.60;99.90;;;;;;4915410;29;20032;-68
2021/04/27 11:20:46;;;;;;;10.65;6.40;;;16.60;99.90;;;;;;4916258;29;20466;-68
2021/04/27 11:23:37;;;;;;;8.48;6.38;;;16.60;99.90;;;;;;4910559;29;20044;-68
2021/04/27 11:26:33;;;;;;;11.40;7.47;;;16.60;99.90;;;;;;4916249;29;20044;-68
2021/04/27 11:29:06;;;;;;;10.77;6.85;;;16.60;99.90;;;;;;4914376;29;20029;-68
2021/04/27 11:32:10;;;;;;;11.85;7.22;;;16.60;99.90;;;;;;4907838;29;20040;-68
2021/04/27 11:34:51;;;;;;;11.07;6.95;;;16.60;99.90;;;;;;4901564;29;20050;-68
2021/04/27 11:37:24;;;;;;;10.95;7.57;;;16.60;99.90;;;;;;4914261;29;20040;-68
2021/04/27 11:39:52;;;;;;;13.23;7.38;;;16.60;99.90;;;;;;4916206;29;20039;-68
2021/04/27 11:42:30;;;;;;;10.05;7.10;;;16.70;99.90;;;;;;4916062;29;20486;-68
2021/04/27 11:45:02;;;;;;;14.45;7.80;;;16.70;99.90;;;;;;4915957;29;20090;-68
2021/04/27 11:47:45;;;;;;;12.35;7.38;;;16.60;99.90;;;;;;4915988;29;20032;-68
2021/04/27 11:50:32;;;;;;;10.82;7.80;;;16.70;99.90;;;;;;4916567;29;20082;-68
2021/04/27 11:53:08;;;;;;;11.20;7.10;;;16.70;99.90;;;;;;4899586;29;20497;-68
2021/04/27 11:55:57;;;;;;;11.45;7.47;;;16.70;99.90;;;;;;4909710;29;20040;-67
2021/04/27 11:58:32;;;;;;;12.95;7.35;;;16.70;99.90;;;;;;4909447;29;20043;-67
2021/04/27 12:01:01;;;;;;;10.05;6.97;;;16.70;99.90;;;;;;4908047;29;20067;-67
2021/04/27 12:03:28;;;;;;;10.15;6.95;;;16.70;99.90;;;;;;4893813;29;20616;-67
2021/04/27 12:06:04;;;;;;;19.25;8.10;;;16.80;99.90;;;;;;4911723;29;20055;-67
2021/04/27 12:08:33;;;;;;;12.75;9.13;;;16.80;99.90;;;;;;4907419;29;20028;-67
2021/04/27 12:11:11;;;;;;;13.82;9.27;;;16.70;99.90;;;;;;4912387;29;20029;-67
2021/04/27 12:13:49;;;;;;;16.10;9.80;;;16.70;99.90;;;;;;4892662;29;20037;-67
2021/04/27 12:16:22;;;;;;;18.65;9.77;;;16.80;99.90;;;;;;4911143;29;20039;-67
2021/04/27 12:19:00;;;;;;;18.10;9.70;;;16.80;99.90;;;;;;4913374;29;20047;-67
2021/04/27 12:21:48;;;;;;;12.18;9.02;;;16.80;99.90;;;;;;4911454;29;20047;-67
2021/04/27 12:24:19;;;;;;;13.70;9.55;;;16.80;99.90;;;;;;4913043;29;20107;-67
2021/04/27 12:26:53;;;;;;;12.40;8.87;;;16.70;99.90;;;;;;4909673;29;20410;-67
2021/04/27 12:29:51;;;;;;;17.23;8.77;;;16.70;99.90;;;;;;4911501;29;20346;-67
2021/04/27 12:32:26;;;;;;;20.10;8.73;;;16.80;99.90;;;;;;4913443;29;20040;-67
2021/04/27 12:35:08;;;;;;;14.30;9.75;;;16.80;99.90;;;;;;4899345;29;20071;-67
2021/04/27 12:37:43;;;;;;;15.45;9.73;;;16.70;99.90;;;;;;4916305;29;20044;-67
2021/04/27 12:40:19;;;;;;;10.45;9.40;;;16.70;99.90;;;;;;4918264;29;20032;-67
2021/04/27 12:42:49;;;;;;;14.63;10.02;;;16.70;99.90;;;;;;4901824;29;20125;-66
2021/04/27 12:45:17;;;;;;;16.83;10.13;;;16.70;99.90;;;;;;4918482;29;20030;-67
2021/04/27 12:47:47;;;;;;;14.98;10.82;;;16.60;99.90;;;;;;4917314;29;20032;-67
2021/04/27 12:50:18;;;;;;;14.18;9.57;;;16.60;99.90;;;;;;4917717;29;20090;-67
2021/04/27 12:52:57;;;;;;;13.63;9.55;;;16.60;99.90;;;;;;4900631;29;20119;-67